createdAt,value
2023-03-17T00:53:41.013Z,102140.00
2023-03-17T00:58:45.528Z,102117.00
2023-03-17T01:03:48.037Z,102116.00
2023-03-17T01:08:52.232Z,102116.00
2023-03-17T01:13:54.785Z,102118.00
2023-03-17T01:19:00.132Z,102139.00
2023-03-17T01:24:06.188Z,102145.00
2023-03-17T01:29:08.815Z,102143.00
2023-03-17T01:34:14.153Z,102137.00
2023-03-17T01:39:19.557Z,102128.00
2023-03-17T01:44:22.573Z,102118.00
2023-03-17T01:49:32.439Z,102118.00
2023-03-17T01:54:44.664Z,102117.00
2023-03-17T01:59:52.001Z,102109.00
2023-03-17T02:04:55.386Z,102097.00
2023-03-17T02:10:00.340Z,102100.00
2023-03-17T02:15:03.219Z,102079.00
2023-03-17T02:21:19.869Z,102078.00
2023-03-17T02:26:26.769Z,102088.00
2023-03-17T02:31:29.754Z,102093.00
2023-03-17T02:36:32.298Z,102089.00
2023-03-17T02:41:36.790Z,102074.00
2023-03-17T02:46:39.237Z,102070.00
2023-03-17T02:51:41.737Z,102061.00
2023-03-17T02:56:48.257Z,102069.00
2023-03-17T03:01:50.961Z,102069.00
2023-03-17T03:06:53.939Z,102053.00
2023-03-17T03:11:57.948Z,102055.00
2023-03-17T03:17:00.783Z,102051.00
2023-03-17T03:22:06.409Z,102061.00
2023-03-17T03:27:10.944Z,102058.00
2023-03-17T03:32:13.799Z,102061.00
2023-03-17T03:37:16.360Z,102073.00
2023-03-17T03:42:22.991Z,102077.00
2023-03-17T03:47:25.588Z,102067.00
2023-03-17T03:52:28.113Z,102079.00
2023-03-17T03:57:32.119Z,102103.00
2023-03-17T04:02:34.978Z,102092.00
2023-03-17T04:07:37.471Z,102075.00
2023-03-17T04:12:44.994Z,102094.00
2023-03-17T04:17:47.900Z,102097.00
2023-03-17T04:22:50.385Z,102078.00
2023-03-17T04:27:54.435Z,102074.00
2023-03-17T04:32:56.923Z,102065.00
2023-03-17T04:37:59.345Z,102044.00
2023-03-17T04:43:03.689Z,102074.00
2023-03-17T04:48:06.520Z,102080.00
2023-03-17T04:53:09.221Z,102075.00
2023-03-17T04:58:21.106Z,102068.00
2023-03-17T05:03:31.394Z,102074.00
2023-03-17T05:08:33.957Z,102076.00
2023-03-17T05:13:37.956Z,102073.00
2023-03-17T05:18:43.211Z,102063.00
2023-03-17T05:23:45.673Z,102065.00
2023-03-17T05:28:52.750Z,102080.00
2023-03-17T05:33:55.283Z,102077.00
2023-03-17T05:38:58.026Z,102056.00
2023-03-17T05:44:02.048Z,102061.00
2023-03-17T05:49:04.690Z,102065.00
2023-03-17T05:54:07.508Z,102056.00
2023-03-17T05:59:14.724Z,102049.00
2023-03-17T06:05:06.750Z,102039.00
2023-03-17T06:11:07.896Z,102044.00
2023-03-17T06:16:42.528Z,102026.00
2023-03-17T06:22:00.645Z,102060.00
2023-03-17T06:27:06.366Z,102040.00
2023-03-17T06:32:20.343Z,102055.00
2023-03-17T06:37:24.204Z,102048.00
2023-03-17T06:42:29.327Z,102051.00
2023-03-17T06:47:34.179Z,102049.00
2023-03-17T06:52:37.602Z,102048.00
2023-03-17T06:57:42.545Z,102054.00
2023-03-17T07:02:47.034Z,102058.00
2023-03-17T07:07:49.728Z,102066.00
2023-03-17T07:12:52.564Z,102076.00
2023-03-17T07:17:56.676Z,102091.00
2023-03-17T07:23:01.270Z,102090.00
2023-03-17T07:28:06.967Z,102088.00
2023-03-17T07:33:11.013Z,102089.00
2023-03-17T07:38:13.778Z,102098.00
2023-03-17T07:43:17.613Z,102082.00
2023-03-17T07:48:24.169Z,102090.00
2023-03-17T07:53:28.076Z,102093.00
2023-03-17T07:58:30.884Z,102080.00
2023-03-17T08:03:39.297Z,102073.00
2023-03-17T08:08:44.338Z,102068.00
2023-03-17T08:13:47.885Z,102065.00
2023-03-17T08:18:54.959Z,102064.00
2023-03-17T08:24:00.709Z,102068.00
2023-03-17T08:29:05.060Z,102063.00
2023-03-17T08:34:12.892Z,102052.00
2023-03-17T08:39:16.562Z,102047.00
2023-03-17T08:44:21.133Z,102047.00
2023-03-17T08:50:23.298Z,102030.00
2023-03-17T08:55:30.854Z,102023.00
2023-03-17T09:00:37.864Z,102026.00
2023-03-17T09:05:43.328Z,102024.00
2023-03-17T09:10:47.659Z,102011.00
2023-03-17T09:15:52.209Z,102018.00
2023-03-17T09:20:57.285Z,102004.00
2023-03-17T09:26:03.433Z,102004.00
2023-03-17T09:31:07.966Z,101994.00
2023-03-17T09:36:12.570Z,101979.00
2023-03-17T09:41:51.167Z,101983.00
2023-03-17T09:47:18.942Z,101992.00
2023-03-17T09:52:29.839Z,101980.00
2023-03-17T09:57:37.625Z,101982.00
2023-03-17T10:02:41.227Z,101972.00
2023-03-17T10:08:03.531Z,101967.00
2023-03-17T10:13:36.636Z,101932.00
2023-03-17T10:18:47.204Z,101922.00
2023-03-17T10:23:54.131Z,101905.00
2023-03-17T10:28:59.370Z,101914.00
2023-03-17T10:34:16.949Z,101909.00
2023-03-17T10:39:25.686Z,101908.00
2023-03-17T10:44:45.094Z,101901.00
2023-03-17T10:50:39.692Z,101897.00
2023-03-17T11:03:19.306Z,101884.00
2023-03-17T11:08:38.440Z,101857.00
2023-03-17T11:13:46.211Z,101855.00
2023-03-17T11:19:01.527Z,101846.00
2023-03-17T11:24:12.291Z,101840.00
2023-03-17T11:29:28.974Z,101835.00
2023-03-17T11:34:58.107Z,101819.00
2023-03-17T11:40:18.617Z,101816.00
2023-03-17T11:45:29.099Z,101792.00
2023-03-17T11:50:40.974Z,101794.00
2023-03-17T11:55:49.011Z,101802.00
2023-03-17T12:00:58.789Z,101781.00
2023-03-17T12:06:09.872Z,101778.00
2023-03-17T12:11:18.209Z,101772.00
2023-03-17T12:16:31.797Z,101782.00
2023-03-17T12:21:44.946Z,101762.00
2023-03-17T12:26:59.055Z,101759.00
2023-03-17T12:32:08.048Z,101752.00
2023-03-17T12:37:16.033Z,101757.00
2023-03-17T12:42:46.450Z,101757.00
2023-03-17T12:48:24.964Z,101759.00
2023-03-17T12:53:32.446Z,101763.00
2023-03-17T12:58:40.262Z,101760.00
2023-03-17T13:04:02.139Z,101741.00
2023-03-17T13:09:47.191Z,101733.00
2023-03-17T13:15:00.641Z,101742.00
2023-03-17T13:20:18.534Z,101747.00
2023-03-17T13:25:33.912Z,101748.00
2023-03-17T13:31:11.984Z,101751.00
2023-03-17T13:36:46.449Z,101753.00
2023-03-17T13:42:18.723Z,101732.00
2023-03-17T13:47:35.098Z,101732.00
2023-03-17T13:52:48.398Z,101741.00
2023-03-17T13:58:22.194Z,101714.00
2023-03-17T14:03:36.227Z,101707.00
2023-03-17T14:08:49.271Z,101691.00
2023-03-17T14:14:29.646Z,101687.00
2023-03-17T14:19:34.029Z,101671.00
2023-03-17T14:24:36.851Z,101663.00
2023-03-17T14:29:41.510Z,101661.00
2023-03-17T14:34:53.283Z,101657.00
2023-03-17T14:39:58.217Z,101663.00
2023-03-17T14:45:05.795Z,101664.00
2023-03-17T14:50:17.998Z,101651.00
2023-03-17T14:55:21.219Z,101655.00
2023-03-17T15:00:35.690Z,101655.00
2023-03-17T15:05:41.536Z,101652.00
2023-03-17T15:10:44.298Z,101648.00
2023-03-17T15:15:48.355Z,101645.00
2023-03-17T15:20:50.912Z,101653.00
2023-03-17T15:25:57.331Z,101666.00
2023-03-17T15:31:13.526Z,101654.00
2023-03-17T15:36:33.528Z,101657.00
2023-03-17T15:41:36.115Z,101655.00
2023-03-17T15:46:40.158Z,101657.00
2023-03-17T15:51:42.644Z,101656.00
2023-03-17T15:56:45.263Z,101658.00
2023-03-17T16:01:49.286Z,101648.00
2023-03-17T16:06:52.005Z,101658.00
2023-03-17T16:11:54.764Z,101660.00
2023-03-17T16:16:58.879Z,101669.00
2023-03-17T16:22:01.520Z,101671.00
2023-03-17T16:27:14.414Z,101670.00
2023-03-17T16:32:18.788Z,101656.00
2023-03-17T16:37:21.259Z,101656.00
2023-03-17T16:42:24.870Z,101662.00
2023-03-17T16:47:28.763Z,101658.00
2023-03-17T16:52:31.313Z,101644.00
2023-03-17T16:57:34.060Z,101645.00
2023-03-17T17:02:38.068Z,101653.00
2023-03-17T17:07:40.719Z,101659.00
2023-03-17T17:12:43.236Z,101664.00
2023-03-17T17:17:50.349Z,101657.00
2023-03-17T17:22:52.747Z,101656.00
2023-03-17T17:27:56.568Z,101643.00
2023-03-17T17:33:01.726Z,101654.00
2023-03-17T17:38:05.019Z,101655.00
2023-03-17T17:43:08.993Z,101655.00
2023-03-17T17:48:13.277Z,101653.00
2023-03-17T17:53:15.749Z,101652.00
2023-03-17T17:58:21.609Z,101653.00
2023-03-17T18:03:26.441Z,101655.00
2023-03-17T18:08:29.015Z,101641.00
2023-03-17T18:13:32.330Z,101658.00
2023-03-17T18:18:36.406Z,101641.00
2023-03-17T18:23:39.519Z,101643.00
2023-03-17T18:28:42.392Z,101642.00
2023-03-17T18:33:49.132Z,101648.00
2023-03-17T18:38:51.751Z,101648.00
2023-03-17T18:43:54.144Z,101638.00
2023-03-17T18:48:57.991Z,101648.00
2023-03-17T18:54:00.787Z,101645.00
2023-03-17T18:59:03.320Z,101642.00
2023-03-17T19:04:07.740Z,101636.00
2023-03-17T19:09:10.883Z,101648.00
2023-03-17T19:14:13.267Z,101645.00
2023-03-17T19:19:17.046Z,101641.00
2023-03-17T19:24:19.522Z,101629.00
2023-03-17T19:29:21.926Z,101627.00
2023-03-17T19:34:25.763Z,101618.00
2023-03-17T19:39:28.232Z,101630.00
2023-03-17T19:44:30.586Z,101625.00
2023-03-17T19:49:34.452Z,101638.00
2023-03-17T19:54:37.546Z,101620.00
2023-03-17T19:59:40.465Z,101612.00
2023-03-17T20:04:44.729Z,101599.00
2023-03-17T20:09:47.218Z,101609.00
2023-03-17T20:14:49.757Z,101613.00
2023-03-17T20:19:53.979Z,101616.00
2023-03-17T20:24:56.410Z,101626.00
2023-03-17T20:29:59.312Z,101620.00
2023-03-17T20:35:06.133Z,101608.00
2023-03-17T20:40:12.062Z,101603.00
2023-03-17T20:45:14.770Z,101595.00
2023-03-17T20:50:22.416Z,101590.00
2023-03-17T20:55:24.790Z,101581.00
2023-03-17T21:00:27.989Z,101575.00
2023-03-17T21:05:32.633Z,101572.00
2023-03-17T21:10:35.368Z,101561.00
2023-03-17T21:15:37.964Z,101557.00
2023-03-17T21:20:41.796Z,101551.00
2023-03-17T21:25:44.188Z,101555.00
2023-03-17T21:30:46.548Z,101571.00
2023-03-17T21:35:50.645Z,101568.00
2023-03-17T21:40:53.709Z,101555.00
2023-03-17T21:45:56.963Z,101559.00
2023-03-17T21:51:01.013Z,101551.00
2023-03-17T21:56:03.623Z,101559.00
2023-03-17T22:01:06.595Z,101561.00
2023-03-17T22:06:11.757Z,101569.00
2023-03-17T22:11:17.589Z,101554.00
2023-03-17T22:16:20.173Z,101571.00
2023-03-17T22:21:24.432Z,101557.00
2023-03-17T22:26:26.883Z,101563.00
2023-03-17T22:31:30.182Z,101559.00
2023-03-17T22:36:37.298Z,101559.00
2023-03-17T22:41:39.713Z,101547.00
2023-03-17T22:46:42.123Z,101554.00
2023-03-17T22:51:45.960Z,101544.00
2023-03-17T22:56:51.140Z,101543.00
2023-03-17T23:01:53.543Z,101549.00
2023-03-17T23:06:57.317Z,101551.00
2023-03-17T23:12:02.292Z,101550.00
2023-03-17T23:17:05.787Z,101535.00
2023-03-17T23:22:09.730Z,101542.00
2023-03-17T23:27:15.016Z,101537.00
2023-03-17T23:32:17.432Z,101526.00
2023-03-17T23:37:21.200Z,101532.00
2023-03-17T23:42:23.556Z,101525.00
2023-03-17T23:47:26.169Z,101526.00
2023-03-17T23:52:30.165Z,101531.00
2023-03-17T23:57:32.852Z,101524.00
